sensor_id;sensor_type;location;lat;lon;timestamp;temperature;humidity
21582;DHT22;10952;50.836;4.348;2022-12-31T00:01:01;15.20;99.90
21582;DHT22;10952;50.836;4.348;2022-12-31T00:03:27;15.30;99.90
21582;DHT22;10952;50.836;4.348;2022-12-31T00:05:52;15.20;99.90
21582;DHT22;10952;50.836;4.348;2022-12-31T00:08:27;15.20;99.90
21582;DHT22;10952;50.836;4.348;2022-12-31T00:10:54;15.10;99.90
21582;DHT22;10952;50.836;4.348;2022-12-31T00:16:23;15.10;99.90
21582;DHT22;10952;50.836;4.348;2022-12-31T00:18:51;15.00;99.90
21582;DHT22;10952;50.836;4.348;2022-12-31T00:21:18;15.00;99.90
21582;DHT22;10952;50.836;4.348;2022-12-31T00:23:47;15.00;99.90
21582;DHT22;10952;50.836;4.348;2022-12-31T00:26:17;15.10;99.90
21582;DHT22;10952;50.836;4.348;2022-12-31T00:28:47;15.10;99.90
21582;DHT22;10952;50.836;4.348;2022-12-31T00:31:31;15.10;99.90
21582;DHT22;10952;50.836;4.348;2022-12-31T00:34:01;15.20;99.90
21582;DHT22;10952;50.836;4.348;2022-12-31T00:36:35;15.20;99.90
21582;DHT22;10952;50.836;4.348;2022-12-31T00:39:03;15.20;99.90
21582;DHT22;10952;50.836;4.348;2022-12-31T00:41:30;15.20;99.90
21582;DHT22;10952;50.836;4.348;2022-12-31T00:43:59;15.30;99.90
21582;DHT22;10952;50.836;4.348;2022-12-31T00:46:25;15.30;99.90
21582;DHT22;10952;50.836;4.348;2022-12-31T00:48:52;15.40;99.90
21582;DHT22;10952;50.836;4.348;2022-12-31T00:51:20;15.50;99.90
21582;DHT22;10952;50.836;4.348;2022-12-31T00:53:46;15.50;99.90
21582;DHT22;10952;50.836;4.348;2022-12-31T00:56:21;15.50;99.90
21582;DHT22;10952;50.836;4.348;2022-12-31T00:58:47;15.60;99.90
21582;DHT22;10952;50.836;4.348;2022-12-31T01:01:18;15.70;99.90
21582;DHT22;10952;50.836;4.348;2022-12-31T01:03:45;15.80;99.90
21582;DHT22;10952;50.836;4.348;2022-12-31T01:06:12;15.90;99.90
21582;DHT22;10952;50.836;4.348;2022-12-31T01:08:50;16.00;99.90
21582;DHT22;10952;50.836;4.348;2022-12-31T01:11:18;16.00;99.90
21582;DHT22;10952;50.836;4.348;2022-12-31T01:13:57;16.10;99.90
21582;DHT22;10952;50.836;4.348;2022-12-31T01:16:35;16.00;99.90
21582;DHT22;10952;50.836;4.348;2022-12-31T01:19:03;16.00;99.90
21582;DHT22;10952;50.836;4.348;2022-12-31T01:21:30;16.00;99.90
21582;DHT22;10952;50.836;4.348;2022-12-31T01:23:57;16.00;99.90
21582;DHT22;10952;50.836;4.348;2022-12-31T01:26:22;16.00;99.90
21582;DHT22;10952;50.836;4.348;2022-12-31T01:28:51;16.20;99.90
21582;DHT22;10952;50.836;4.348;2022-12-31T01:31:21;16.20;99.90
21582;DHT22;10952;50.836;4.348;2022-12-31T01:33:48;16.20;99.90
21582;DHT22;10952;50.836;4.348;2022-12-31T01:36:22;16.10;99.90
21582;DHT22;10952;50.836;4.348;2022-12-31T01:38:48;16.10;99.90
21582;DHT22;10952;50.836;4.348;2022-12-31T01:41:24;16.20;99.90
21582;DHT22;10952;50.836;4.348;2022-12-31T01:43:57;16.20;99.90
21582;DHT22;10952;50.836;4.348;2022-12-31T01:52:06;16.30;99.90
21582;DHT22;10952;50.836;4.348;2022-12-31T01:54:38;16.30;99.90
21582;DHT22;10952;50.836;4.348;2022-12-31T01:57:04;16.20;99.90
21582;DHT22;10952;50.836;4.348;2022-12-31T01:59:32;16.20;99.90
21582;DHT22;10952;50.836;4.348;2022-12-31T02:01:59;16.30;99.90
21582;DHT22;10952;50.836;4.348;2022-12-31T02:04:27;16.30;99.90
21582;DHT22;10952;50.836;4.348;2022-12-31T02:07:01;16.40;99.90
21582;DHT22;10952;50.836;4.348;2022-12-31T02:09:28;16.30;99.90
21582;DHT22;10952;50.836;4.348;2022-12-31T02:11:57;16.30;99.90
21582;DHT22;10952;50.836;4.348;2022-12-31T02:14:30;16.20;99.90
21582;DHT22;10952;50.836;4.348;2022-12-31T02:30:35;15.90;99.90
21582;DHT22;10952;50.836;4.348;2022-12-31T02:33:12;15.80;99.90
21582;DHT22;10952;50.836;4.348;2022-12-31T02:36:00;15.80;99.90
21582;DHT22;10952;50.836;4.348;2022-12-31T02:38:30;15.80;99.90
21582;DHT22;10952;50.836;4.348;2022-12-31T02:40:57;15.90;99.90
21582;DHT22;10952;50.836;4.348;2022-12-31T02:43:24;15.80;99.90
21582;DHT22;10952;50.836;4.348;2022-12-31T02:54:15;16.00;99.90
21582;DHT22;10952;50.836;4.348;2022-12-31T02:57:02;16.00;99.90
21582;DHT22;10952;50.836;4.348;2022-12-31T02:59:59;15.90;99.90
21582;DHT22;10952;50.836;4.348;2022-12-31T03:02:44;15.90;99.90
21582;DHT22;10952;50.836;4.348;2022-12-31T03:05:12;15.90;99.90
21582;DHT22;10952;50.836;4.348;2022-12-31T03:07:40;15.90;99.90
21582;DHT22;10952;50.836;4.348;2022-12-31T03:10:06;15.90;99.90
21582;DHT22;10952;50.836;4.348;2022-12-31T03:12:33;16.00;99.90
21582;DHT22;10952;50.836;4.348;2022-12-31T03:15:23;16.00;99.90
21582;DHT22;10952;50.836;4.348;2022-12-31T03:20:26;16.00;99.90
21582;DHT22;10952;50.836;4.348;2022-12-31T03:23:14;16.10;99.90
21582;DHT22;10952;50.836;4.348;2022-12-31T03:25:40;16.10;99.90
21582;DHT22;10952;50.836;4.348;2022-12-31T03:28:09;16.20;99.90
21582;DHT22;10952;50.836;4.348;2022-12-31T03:30:37;16.20;99.90
21582;DHT22;10952;50.836;4.348;2022-12-31T03:33:04;16.30;99.90
21582;DHT22;10952;50.836;4.348;2022-12-31T03:35:32;16.30;99.90
21582;DHT22;10952;50.836;4.348;2022-12-31T03:37:57;16.30;99.90
21582;DHT22;10952;50.836;4.348;2022-12-31T03:40:24;16.40;99.90
21582;DHT22;10952;50.836;4.348;2022-12-31T03:42:52;16.20;99.90
21582;DHT22;10952;50.836;4.348;2022-12-31T03:45:17;16.30;99.90
21582;DHT22;10952;50.836;4.348;2022-12-31T03:47:43;16.30;99.90
21582;DHT22;10952;50.836;4.348;2022-12-31T03:50:11;16.20;99.90
21582;DHT22;10952;50.836;4.348;2022-12-31T03:52:37;16.30;99.90
21582;DHT22;10952;50.836;4.348;2022-12-31T03:55:03;16.40;99.90
21582;DHT22;10952;50.836;4.348;2022-12-31T03:57:29;16.40;99.90
21582;DHT22;10952;50.836;4.348;2022-12-31T03:59:55;16.40;99.90
21582;DHT22;10952;50.836;4.348;2022-12-31T04:02:22;16.40;99.90
21582;DHT22;10952;50.836;4.348;2022-12-31T04:04:48;16.40;99.90
21582;DHT22;10952;50.836;4.348;2022-12-31T04:07:13;16.50;99.90
21582;DHT22;10952;50.836;4.348;2022-12-31T04:09:39;16.60;99.90
21582;DHT22;10952;50.836;4.348;2022-12-31T04:12:05;16.60;99.90
21582;DHT22;10952;50.836;4.348;2022-12-31T04:14:30;16.60;99.90
21582;DHT22;10952;50.836;4.348;2022-12-31T04:16:56;16.60;99.90
21582;DHT22;10952;50.836;4.348;2022-12-31T04:19:22;16.60;99.90
21582;DHT22;10952;50.836;4.348;2022-12-31T04:21:47;16.70;99.90
21582;DHT22;10952;50.836;4.348;2022-12-31T04:24:13;16.70;99.90
21582;DHT22;10952;50.836;4.348;2022-12-31T04:26:39;16.70;99.90
21582;DHT22;10952;50.836;4.348;2022-12-31T04:29:05;16.70;99.90
21582;DHT22;10952;50.836;4.348;2022-12-31T04:31:30;16.70;99.90
21582;DHT22;10952;50.836;4.348;2022-12-31T04:33:57;16.60;99.90
21582;DHT22;10952;50.836;4.348;2022-12-31T04:36:23;16.50;99.90
21582;DHT22;10952;50.836;4.348;2022-12-31T04:38:48;16.30;99.90
21582;DHT22;10952;50.836;4.348;2022-12-31T04:41:14;16.30;99.90
21582;DHT22;10952;50.836;4.348;2022-12-31T04:43:45;16.30;99.90
21582;DHT22;10952;50.836;4.348;2022-12-31T04:46:12;16.20;99.90
21582;DHT22;10952;50.836;4.348;2022-12-31T04:48:38;16.30;99.90
21582;DHT22;10952;50.836;4.348;2022-12-31T04:51:04;16.30;99.90
21582;DHT22;10952;50.836;4.348;2022-12-31T04:53:30;16.30;99.90
21582;DHT22;10952;50.836;4.348;2022-12-31T04:55:56;16.50;99.90
21582;DHT22;10952;50.836;4.348;2022-12-31T04:58:21;16.50;99.90
21582;DHT22;10952;50.836;4.348;2022-12-31T05:00:49;16.60;99.90
21582;DHT22;10952;50.836;4.348;2022-12-31T05:03:16;16.70;99.90
21582;DHT22;10952;50.836;4.348;2022-12-31T05:05:41;16.70;99.90
21582;DHT22;10952;50.836;4.348;2022-12-31T05:08:11;16.80;99.90
21582;DHT22;10952;50.836;4.348;2022-12-31T05:10:42;16.80;99.90
21582;DHT22;10952;50.836;4.348;2022-12-31T05:13:08;16.90;99.90
21582;DHT22;10952;50.836;4.348;2022-12-31T05:15:34;16.90;99.90
21582;DHT22;10952;50.836;4.348;2022-12-31T05:18:00;16.90;99.90
21582;DHT22;10952;50.836;4.348;2022-12-31T05:20:25;16.90;99.90
21582;DHT22;10952;50.836;4.348;2022-12-31T05:22:51;17.00;99.90
21582;DHT22;10952;50.836;4.348;2022-12-31T05:25:16;17.00;99.90
21582;DHT22;10952;50.836;4.348;2022-12-31T05:27:42;17.00;99.90
21582;DHT22;10952;50.836;4.348;2022-12-31T05:30:08;17.10;99.90
21582;DHT22;10952;50.836;4.348;2022-12-31T05:32:34;17.00;99.90
21582;DHT22;10952;50.836;4.348;2022-12-31T05:35:00;17.00;99.90
21582;DHT22;10952;50.836;4.348;2022-12-31T05:37:27;17.00;99.90
21582;DHT22;10952;50.836;4.348;2022-12-31T05:39:53;17.10;99.90
21582;DHT22;10952;50.836;4.348;2022-12-31T05:42:19;17.10;99.90
21582;DHT22;10952;50.836;4.348;2022-12-31T05:44:45;17.10;99.90
21582;DHT22;10952;50.836;4.348;2022-12-31T05:47:11;17.10;99.90
21582;DHT22;10952;50.836;4.348;2022-12-31T05:49:37;17.20;99.90
21582;DHT22;10952;50.836;4.348;2022-12-31T05:52:02;17.20;99.90
21582;DHT22;10952;50.836;4.348;2022-12-31T05:54:28;17.20;99.90
21582;DHT22;10952;50.836;4.348;2022-12-31T05:56:53;17.20;99.90
21582;DHT22;10952;50.836;4.348;2022-12-31T05:59:19;17.20;99.90
21582;DHT22;10952;50.836;4.348;2022-12-31T06:01:45;17.20;99.90
21582;DHT22;10952;50.836;4.348;2022-12-31T06:04:11;17.20;99.90
21582;DHT22;10952;50.836;4.348;2022-12-31T06:06:36;17.20;99.90
21582;DHT22;10952;50.836;4.348;2022-12-31T06:09:03;17.30;99.90
21582;DHT22;10952;50.836;4.348;2022-12-31T06:11:29;17.30;99.90
21582;DHT22;10952;50.836;4.348;2022-12-31T06:13:54;17.30;99.90
21582;DHT22;10952;50.836;4.348;2022-12-31T06:16:20;17.20;99.90
21582;DHT22;10952;50.836;4.348;2022-12-31T06:18:49;17.20;99.90
21582;DHT22;10952;50.836;4.348;2022-12-31T06:21:19;17.30;99.90
21582;DHT22;10952;50.836;4.348;2022-12-31T06:23:46;17.20;99.90
21582;DHT22;10952;50.836;4.348;2022-12-31T06:26:13;17.30;99.90
21582;DHT22;10952;50.836;4.348;2022-12-31T06:28:38;17.30;99.90
21582;DHT22;10952;50.836;4.348;2022-12-31T06:31:11;17.20;99.90
21582;DHT22;10952;50.836;4.348;2022-12-31T06:33:36;17.30;99.90
21582;DHT22;10952;50.836;4.348;2022-12-31T06:36:04;17.30;99.90
21582;DHT22;10952;50.836;4.348;2022-12-31T06:38:32;17.30;99.90
21582;DHT22;10952;50.836;4.348;2022-12-31T06:41:03;17.30;99.90
21582;DHT22;10952;50.836;4.348;2022-12-31T06:43:29;17.40;99.90
21582;DHT22;10952;50.836;4.348;2022-12-31T06:45:54;17.40;99.90
21582;DHT22;10952;50.836;4.348;2022-12-31T06:48:20;17.40;99.90
21582;DHT22;10952;50.836;4.348;2022-12-31T06:50:45;17.40;99.90
21582;DHT22;10952;50.836;4.348;2022-12-31T06:53:11;17.40;99.90
21582;DHT22;10952;50.836;4.348;2022-12-31T06:55:37;17.20;99.90
21582;DHT22;10952;50.836;4.348;2022-12-31T06:58:03;17.20;99.90
21582;DHT22;10952;50.836;4.348;2022-12-31T07:00:29;17.20;99.90
21582;DHT22;10952;50.836;4.348;2022-12-31T07:03:49;17.10;99.90
21582;DHT22;10952;50.836;4.348;2022-12-31T07:06:24;16.90;99.90
21582;DHT22;10952;50.836;4.348;2022-12-31T07:11:44;16.50;99.90
21582;DHT22;10952;50.836;4.348;2022-12-31T07:17:02;16.30;99.90
21582;DHT22;10952;50.836;4.348;2022-12-31T07:22:02;16.20;99.90
21582;DHT22;10952;50.836;4.348;2022-12-31T07:24:28;16.20;99.90
21582;DHT22;10952;50.836;4.348;2022-12-31T07:27:11;16.20;99.90
21582;DHT22;10952;50.836;4.348;2022-12-31T07:30:02;16.30;99.90
21582;DHT22;10952;50.836;4.348;2022-12-31T07:35:43;16.40;99.90
21582;DHT22;10952;50.836;4.348;2022-12-31T07:41:02;16.50;99.90
21582;DHT22;10952;50.836;4.348;2022-12-31T07:43:46;16.60;99.90
21582;DHT22;10952;50.836;4.348;2022-12-31T07:46:29;16.50;99.90
21582;DHT22;10952;50.836;4.348;2022-12-31T07:48:58;16.60;99.90
21582;DHT22;10952;50.836;4.348;2022-12-31T07:51:27;16.60;99.90
21582;DHT22;10952;50.836;4.348;2022-12-31T07:53:52;16.50;99.90
21582;DHT22;10952;50.836;4.348;2022-12-31T07:56:18;16.50;99.90
21582;DHT22;10952;50.836;4.348;2022-12-31T07:59:01;16.50;99.90
21582;DHT22;10952;50.836;4.348;2022-12-31T08:01:50;16.40;99.90
21582;DHT22;10952;50.836;4.348;2022-12-31T08:12:33;16.60;99.90
21582;DHT22;10952;50.836;4.348;2022-12-31T08:14:59;16.60;99.90
21582;DHT22;10952;50.836;4.348;2022-12-31T08:17:25;16.70;99.90
21582;DHT22;10952;50.836;4.348;2022-12-31T08:19:51;16.70;99.90
21582;DHT22;10952;50.836;4.348;2022-12-31T08:22:29;16.70;99.90
21582;DHT22;10952;50.836;4.348;2022-12-31T08:25:07;16.70;99.90
21582;DHT22;10952;50.836;4.348;2022-12-31T08:30:22;16.80;99.90
21582;DHT22;10952;50.836;4.348;2022-12-31T08:33:13;16.80;99.90
21582;DHT22;10952;50.836;4.348;2022-12-31T08:39:01;16.90;99.90
21582;DHT22;10952;50.836;4.348;2022-12-31T08:41:30;17.00;99.90
21582;DHT22;10952;50.836;4.348;2022-12-31T08:49:35;17.10;99.90
21582;DHT22;10952;50.836;4.348;2022-12-31T08:52:01;17.20;99.90
21582;DHT22;10952;50.836;4.348;2022-12-31T08:54:28;17.20;99.90
21582;DHT22;10952;50.836;4.348;2022-12-31T09:05:10;17.20;99.90
21582;DHT22;10952;50.836;4.348;2022-12-31T09:10:28;17.20;99.90
21582;DHT22;10952;50.836;4.348;2022-12-31T09:13:05;17.20;99.90
21582;DHT22;10952;50.836;4.348;2022-12-31T09:15:41;17.10;99.90
21582;DHT22;10952;50.836;4.348;2022-12-31T09:18:08;17.20;99.90
21582;DHT22;10952;50.836;4.348;2022-12-31T09:20:36;17.30;99.90
21582;DHT22;10952;50.836;4.348;2022-12-31T09:23:02;17.30;99.90
21582;DHT22;10952;50.836;4.348;2022-12-31T09:25:29;17.30;99.90
21582;DHT22;10952;50.836;4.348;2022-12-31T09:28:07;17.30;99.90
21582;DHT22;10952;50.836;4.348;2022-12-31T09:30:56;17.30;99.90
21582;DHT22;10952;50.836;4.348;2022-12-31T09:36:28;17.30;99.90
21582;DHT22;10952;50.836;4.348;2022-12-31T09:39:04;17.20;99.90
21582;DHT22;10952;50.836;4.348;2022-12-31T09:44:42;17.10;99.90
21582;DHT22;10952;50.836;4.348;2022-12-31T09:50:31;17.00;99.90
21582;DHT22;10952;50.836;4.348;2022-12-31T10:06:32;17.30;99.90
21582;DHT22;10952;50.836;4.348;2022-12-31T10:15:15;17.50;99.90
21582;DHT22;10952;50.836;4.348;2022-12-31T10:20:45;17.50;99.90
21582;DHT22;10952;50.836;4.348;2022-12-31T10:23:32;17.50;99.90
21582;DHT22;10952;50.836;4.348;2022-12-31T10:34:29;17.40;99.90
21582;DHT22;10952;50.836;4.348;2022-12-31T10:37:09;17.50;99.90
21582;DHT22;10952;50.836;4.348;2022-12-31T11:15:17;17.10;99.90
21582;DHT22;10952;50.836;4.348;2022-12-31T11:18:10;17.00;99.90
21582;DHT22;10952;50.836;4.348;2022-12-31T11:20:49;17.00;99.90
21582;DHT22;10952;50.836;4.348;2022-12-31T11:23:43;16.90;99.90
21582;DHT22;10952;50.836;4.348;2022-12-31T11:32:21;17.00;99.90
21582;DHT22;10952;50.836;4.348;2022-12-31T11:35:03;17.10;99.90
21582;DHT22;10952;50.836;4.348;2022-12-31T11:37:49;17.10;99.90
21582;DHT22;10952;50.836;4.348;2022-12-31T11:42:57;17.10;99.90
21582;DHT22;10952;50.836;4.348;2022-12-31T11:56:28;17.20;99.90
21582;DHT22;10952;50.836;4.348;2022-12-31T11:58:57;17.20;99.90
21582;DHT22;10952;50.836;4.348;2022-12-31T12:01:50;17.30;99.90
21582;DHT22;10952;50.836;4.348;2022-12-31T12:04:16;17.40;99.90
21582;DHT22;10952;50.836;4.348;2022-12-31T12:06:42;17.40;99.90
21582;DHT22;10952;50.836;4.348;2022-12-31T12:09:25;17.40;99.90
21582;DHT22;10952;50.836;4.348;2022-12-31T12:12:04;17.50;99.90
21582;DHT22;10952;50.836;4.348;2022-12-31T12:14:59;17.50;99.90
21582;DHT22;10952;50.836;4.348;2022-12-31T12:17:41;17.60;99.90
21582;DHT22;10952;50.836;4.348;2022-12-31T12:20:19;17.50;99.90
21582;DHT22;10952;50.836;4.348;2022-12-31T12:22:50;17.60;99.90
21582;DHT22;10952;50.836;4.348;2022-12-31T12:25:20;17.50;99.90
21582;DHT22;10952;50.836;4.348;2022-12-31T12:27:46;17.50;99.90
21582;DHT22;10952;50.836;4.348;2022-12-31T12:30:29;17.40;99.90
21582;DHT22;10952;50.836;4.348;2022-12-31T12:33:04;17.40;99.90
21582;DHT22;10952;50.836;4.348;2022-12-31T12:35:37;17.30;99.90
21582;DHT22;10952;50.836;4.348;2022-12-31T12:38:14;17.30;99.90
21582;DHT22;10952;50.836;4.348;2022-12-31T12:40:39;17.20;99.90
21582;DHT22;10952;50.836;4.348;2022-12-31T12:43:16;17.20;99.90
21582;DHT22;10952;50.836;4.348;2022-12-31T12:45:46;17.20;99.90
21582;DHT22;10952;50.836;4.348;2022-12-31T12:48:18;17.20;99.90
21582;DHT22;10952;50.836;4.348;2022-12-31T12:50:47;17.20;99.90
21582;DHT22;10952;50.836;4.348;2022-12-31T12:53:37;17.20;99.90
21582;DHT22;10952;50.836;4.348;2022-12-31T12:59:38;17.10;99.90
21582;DHT22;10952;50.836;4.348;2022-12-31T13:13:45;17.10;99.90
21582;DHT22;10952;50.836;4.348;2022-12-31T13:16:33;17.10;99.90
21582;DHT22;10952;50.836;4.348;2022-12-31T13:19:41;17.10;99.90
21582;DHT22;10952;50.836;4.348;2022-12-31T13:22:31;17.20;99.90
21582;DHT22;10952;50.836;4.348;2022-12-31T13:25:06;17.30;99.90
21582;DHT22;10952;50.836;4.348;2022-12-31T13:27:41;17.40;99.90
21582;DHT22;10952;50.836;4.348;2022-12-31T13:30:25;17.30;99.90
21582;DHT22;10952;50.836;4.348;2022-12-31T13:33:21;17.30;99.90
21582;DHT22;10952;50.836;4.348;2022-12-31T13:38:37;17.30;99.90
21582;DHT22;10952;50.836;4.348;2022-12-31T13:41:26;17.20;99.90
21582;DHT22;10952;50.836;4.348;2022-12-31T13:44:02;17.10;99.90
21582;DHT22;10952;50.836;4.348;2022-12-31T13:46:46;17.20;99.90
21582;DHT22;10952;50.836;4.348;2022-12-31T13:52:06;17.20;99.90
21582;DHT22;10952;50.836;4.348;2022-12-31T13:55:07;17.20;99.90
21582;DHT22;10952;50.836;4.348;2022-12-31T13:57:55;17.20;99.90
21582;DHT22;10952;50.836;4.348;2022-12-31T14:00:33;17.20;99.90
21582;DHT22;10952;50.836;4.348;2022-12-31T14:06:02;17.30;99.90
21582;DHT22;10952;50.836;4.348;2022-12-31T14:08:31;17.40;99.90
21582;DHT22;10952;50.836;4.348;2022-12-31T14:11:10;17.40;99.90
21582;DHT22;10952;50.836;4.348;2022-12-31T14:37:06;17.20;99.90
21582;DHT22;10952;50.836;4.348;2022-12-31T14:39:53;17.20;99.90
21582;DHT22;10952;50.836;4.348;2022-12-31T14:45:31;17.10;99.90
21582;DHT22;10952;50.836;4.348;2022-12-31T14:50:47;17.10;99.90
21582;DHT22;10952;50.836;4.348;2022-12-31T14:53:24;17.10;99.90
21582;DHT22;10952;50.836;4.348;2022-12-31T14:56:05;17.10;99.90
21582;DHT22;10952;50.836;4.348;2022-12-31T14:58:38;17.10;99.90
21582;DHT22;10952;50.836;4.348;2022-12-31T15:01:18;17.10;99.90
21582;DHT22;10952;50.836;4.348;2022-12-31T15:03:56;17.00;99.90
21582;DHT22;10952;50.836;4.348;2022-12-31T15:17:47;17.00;99.90
21582;DHT22;10952;50.836;4.348;2022-12-31T15:22:55;16.90;99.90
21582;DHT22;10952;50.836;4.348;2022-12-31T15:25:44;16.90;99.90
21582;DHT22;10952;50.836;4.348;2022-12-31T15:28:33;16.90;99.90
21582;DHT22;10952;50.836;4.348;2022-12-31T15:31:17;16.90;99.90
21582;DHT22;10952;50.836;4.348;2022-12-31T15:33:56;16.90;99.90
21582;DHT22;10952;50.836;4.348;2022-12-31T15:36:29;17.00;99.90
21582;DHT22;10952;50.836;4.348;2022-12-31T15:41:46;16.90;99.90
21582;DHT22;10952;50.836;4.348;2022-12-31T15:47:38;16.90;99.90
21582;DHT22;10952;50.836;4.348;2022-12-31T15:50:11;17.00;99.90
21582;DHT22;10952;50.836;4.348;2022-12-31T15:52:45;16.90;99.90
21582;DHT22;10952;50.836;4.348;2022-12-31T15:55:41;16.90;99.90
21582;DHT22;10952;50.836;4.348;2022-12-31T15:58:15;16.80;99.90
21582;DHT22;10952;50.836;4.348;2022-12-31T16:01:02;16.80;99.90
21582;DHT22;10952;50.836;4.348;2022-12-31T16:03:34;16.80;99.90
21582;DHT22;10952;50.836;4.348;2022-12-31T16:06:22;16.80;99.90
21582;DHT22;10952;50.836;4.348;2022-12-31T16:08:51;16.80;99.90
21582;DHT22;10952;50.836;4.348;2022-12-31T16:11:19;16.80;99.90
21582;DHT22;10952;50.836;4.348;2022-12-31T16:13:50;16.80;99.90
21582;DHT22;10952;50.836;4.348;2022-12-31T16:16:32;16.70;99.90
21582;DHT22;10952;50.836;4.348;2022-12-31T16:19:01;16.70;99.90
21582;DHT22;10952;50.836;4.348;2022-12-31T16:21:35;16.70;99.90
21582;DHT22;10952;50.836;4.348;2022-12-31T16:24:30;16.70;99.90
21582;DHT22;10952;50.836;4.348;2022-12-31T16:27:00;16.60;99.90
21582;DHT22;10952;50.836;4.348;2022-12-31T16:29:27;16.60;99.90
21582;DHT22;10952;50.836;4.348;2022-12-31T16:31:53;16.60;99.90
21582;DHT22;10952;50.836;4.348;2022-12-31T16:34:22;16.50;99.90
21582;DHT22;10952;50.836;4.348;2022-12-31T16:41:46;16.50;99.90
21582;DHT22;10952;50.836;4.348;2022-12-31T16:44:30;16.60;99.90
21582;DHT22;10952;50.836;4.348;2022-12-31T16:47:00;16.60;99.90
21582;DHT22;10952;50.836;4.348;2022-12-31T16:49:31;16.60;99.90
21582;DHT22;10952;50.836;4.348;2022-12-31T16:52:03;16.50;99.90
21582;DHT22;10952;50.836;4.348;2022-12-31T16:54:39;16.40;99.90
21582;DHT22;10952;50.836;4.348;2022-12-31T16:57:17;16.50;99.90
21582;DHT22;10952;50.836;4.348;2022-12-31T16:59:59;16.60;99.90
21582;DHT22;10952;50.836;4.348;2022-12-31T17:02:40;16.60;99.90
21582;DHT22;10952;50.836;4.348;2022-12-31T17:05:24;16.40;99.90
21582;DHT22;10952;50.836;4.348;2022-12-31T17:07:50;16.50;99.90
21582;DHT22;10952;50.836;4.348;2022-12-31T17:10:33;16.50;99.90
21582;DHT22;10952;50.836;4.348;2022-12-31T17:13:01;16.50;99.90
21582;DHT22;10952;50.836;4.348;2022-12-31T17:15:41;16.50;99.90
21582;DHT22;10952;50.836;4.348;2022-12-31T17:18:17;16.50;99.90
21582;DHT22;10952;50.836;4.348;2022-12-31T17:20:43;16.60;99.90
21582;DHT22;10952;50.836;4.348;2022-12-31T17:23:18;16.60;99.90
21582;DHT22;10952;50.836;4.348;2022-12-31T17:25:47;16.60;99.90
21582;DHT22;10952;50.836;4.348;2022-12-31T17:28:20;16.60;99.90
21582;DHT22;10952;50.836;4.348;2022-12-31T17:30:47;16.60;99.90
21582;DHT22;10952;50.836;4.348;2022-12-31T17:33:29;16.60;99.90
21582;DHT22;10952;50.836;4.348;2022-12-31T17:36:14;16.70;99.90
21582;DHT22;10952;50.836;4.348;2022-12-31T17:38:54;16.60;99.90
21582;DHT22;10952;50.836;4.348;2022-12-31T17:41:24;16.60;99.90
21582;DHT22;10952;50.836;4.348;2022-12-31T17:43:56;16.70;99.90
21582;DHT22;10952;50.836;4.348;2022-12-31T17:46:22;16.70;99.90
21582;DHT22;10952;50.836;4.348;2022-12-31T17:49:00;16.80;99.90
21582;DHT22;10952;50.836;4.348;2022-12-31T17:51:26;16.70;99.90
21582;DHT22;10952;50.836;4.348;2022-12-31T17:53:52;16.70;99.90
21582;DHT22;10952;50.836;4.348;2022-12-31T17:56:20;16.70;99.90
21582;DHT22;10952;50.836;4.348;2022-12-31T17:58:50;16.70;99.90
21582;DHT22;10952;50.836;4.348;2022-12-31T18:01:21;16.70;99.90
21582;DHT22;10952;50.836;4.348;2022-12-31T18:03:47;16.80;99.90
21582;DHT22;10952;50.836;4.348;2022-12-31T18:06:13;16.80;99.90
21582;DHT22;10952;50.836;4.348;2022-12-31T18:08:40;16.80;99.90
21582;DHT22;10952;50.836;4.348;2022-12-31T18:11:12;16.70;99.90
21582;DHT22;10952;50.836;4.348;2022-12-31T18:13:39;16.80;99.90
21582;DHT22;10952;50.836;4.348;2022-12-31T18:16:08;16.90;99.90
21582;DHT22;10952;50.836;4.348;2022-12-31T18:18:35;16.90;99.90
21582;DHT22;10952;50.836;4.348;2022-12-31T18:21:07;16.80;99.90
21582;DHT22;10952;50.836;4.348;2022-12-31T18:23:40;16.80;99.90
21582;DHT22;10952;50.836;4.348;2022-12-31T18:26:15;16.90;99.90
21582;DHT22;10952;50.836;4.348;2022-12-31T18:28:40;17.00;99.90
21582;DHT22;10952;50.836;4.348;2022-12-31T18:31:13;17.00;99.90
21582;DHT22;10952;50.836;4.348;2022-12-31T18:33:39;17.00;99.90
21582;DHT22;10952;50.836;4.348;2022-12-31T18:36:12;16.90;99.90
21582;DHT22;10952;50.836;4.348;2022-12-31T18:38:39;16.90;99.90
21582;DHT22;10952;50.836;4.348;2022-12-31T18:41:05;16.80;99.90
21582;DHT22;10952;50.836;4.348;2022-12-31T18:43:31;16.80;99.90
21582;DHT22;10952;50.836;4.348;2022-12-31T18:46:03;16.90;99.90
21582;DHT22;10952;50.836;4.348;2022-12-31T18:48:28;16.90;99.90
21582;DHT22;10952;50.836;4.348;2022-12-31T18:50:57;16.80;99.90
21582;DHT22;10952;50.836;4.348;2022-12-31T18:53:23;16.60;99.90
21582;DHT22;10952;50.836;4.348;2022-12-31T18:55:53;16.80;99.90
21582;DHT22;10952;50.836;4.348;2022-12-31T18:58:19;16.70;99.90
21582;DHT22;10952;50.836;4.348;2022-12-31T19:00:51;16.70;99.90
21582;DHT22;10952;50.836;4.348;2022-12-31T19:03:22;16.80;99.90
21582;DHT22;10952;50.836;4.348;2022-12-31T19:05:55;16.80;99.90
21582;DHT22;10952;50.836;4.348;2022-12-31T19:08:22;16.80;99.90
21582;DHT22;10952;50.836;4.348;2022-12-31T19:10:49;16.80;99.90
21582;DHT22;10952;50.836;4.348;2022-12-31T19:13:20;16.70;99.90
21582;DHT22;10952;50.836;4.348;2022-12-31T19:15:51;16.80;99.90
21582;DHT22;10952;50.836;4.348;2022-12-31T19:18:20;16.80;99.90
21582;DHT22;10952;50.836;4.348;2022-12-31T19:20:46;16.70;99.90
21582;DHT22;10952;50.836;4.348;2022-12-31T19:23:19;16.70;99.90
21582;DHT22;10952;50.836;4.348;2022-12-31T19:25:46;16.70;99.90
21582;DHT22;10952;50.836;4.348;2022-12-31T19:28:42;16.70;99.90
21582;DHT22;10952;50.836;4.348;2022-12-31T19:31:07;16.70;99.90
21582;DHT22;10952;50.836;4.348;2022-12-31T19:33:33;16.60;99.90
21582;DHT22;10952;50.836;4.348;2022-12-31T19:36:02;16.60;99.90
21582;DHT22;10952;50.836;4.348;2022-12-31T19:38:28;16.60;99.90
21582;DHT22;10952;50.836;4.348;2022-12-31T19:40:56;16.60;99.90
21582;DHT22;10952;50.836;4.348;2022-12-31T19:43:25;16.50;99.90
21582;DHT22;10952;50.836;4.348;2022-12-31T19:45:56;16.50;99.90
21582;DHT22;10952;50.836;4.348;2022-12-31T19:48:35;16.50;99.90
21582;DHT22;10952;50.836;4.348;2022-12-31T19:51:01;16.50;99.90
21582;DHT22;10952;50.836;4.348;2022-12-31T19:53:30;16.50;99.90
21582;DHT22;10952;50.836;4.348;2022-12-31T19:55:56;16.50;99.90
21582;DHT22;10952;50.836;4.348;2022-12-31T19:58:37;16.60;99.90
21582;DHT22;10952;50.836;4.348;2022-12-31T20:01:11;16.70;99.90
21582;DHT22;10952;50.836;4.348;2022-12-31T20:03:41;16.60;99.90
21582;DHT22;10952;50.836;4.348;2022-12-31T20:06:08;16.60;99.90
21582;DHT22;10952;50.836;4.348;2022-12-31T20:08:35;16.70;99.90
21582;DHT22;10952;50.836;4.348;2022-12-31T20:11:16;16.70;99.90